createdAt,value
2018-11-04T00:03:53.009Z,100120.66
2018-11-04T00:09:57.755Z,100124.22
2018-11-04T00:16:02.604Z,100115.84
2018-11-04T00:22:07.525Z,100122.17
2018-11-04T00:28:12.650Z,100120.42
2018-11-04T00:34:17.704Z,100111.50
2018-11-04T00:40:22.470Z,100105.78
2018-11-04T00:46:27.260Z,100094.28
2018-11-04T00:52:31.984Z,100087.86
2018-11-04T00:58:36.714Z,100068.92
2018-11-04T01:04:42.180Z,100057.39
2018-11-04T01:10:47.276Z,100057.73
2018-11-04T01:16:52.076Z,100055.85
2018-11-04T01:22:57.287Z,100049.98
2018-11-04T01:29:02.002Z,100035.52
2018-11-04T01:35:08.176Z,100015.22
2018-11-04T01:41:12.829Z,100009.30
2018-11-04T01:47:17.586Z,99999.81
2018-11-04T01:53:22.401Z,99991.98
2018-11-04T01:59:27.104Z,99977.49
2018-11-04T02:05:31.808Z,99968.63
2018-11-04T02:11:36.672Z,99954.45
2018-11-04T02:17:41.914Z,99934.23
2018-11-04T02:23:46.944Z,99922.72
2018-11-04T02:29:51.723Z,99918.34
2018-11-04T02:35:56.911Z,99900.28
2018-11-04T02:42:01.556Z,99894.27
2018-11-04T02:48:06.847Z,99887.09
2018-11-04T02:54:11.556Z,99893.56
2018-11-04T03:00:16.739Z,99883.50
2018-11-04T03:06:21.733Z,99873.98
2018-11-04T03:12:26.450Z,99870.62
2018-11-04T03:18:31.142Z,99865.00
2018-11-04T03:24:36.101Z,99863.93
2018-11-04T03:30:41.197Z,99852.02
2018-11-04T03:36:45.930Z,99849.83
2018-11-04T03:42:51.145Z,99853.09
2018-11-04T03:48:55.855Z,99850.20
2018-11-04T03:55:00.580Z,99849.27
2018-11-04T04:01:05.518Z,99836.50
2018-11-04T04:07:10.509Z,99829.77
2018-11-04T04:13:15.187Z,99823.32
2018-11-04T04:19:20.576Z,99810.31
2018-11-04T04:25:25.250Z,99813.64
2018-11-04T04:31:29.939Z,99820.69
2018-11-04T04:37:34.975Z,99816.36
2018-11-04T04:43:39.690Z,99805.45
2018-11-04T04:49:44.388Z,99809.64
2018-11-04T04:55:49.295Z,99801.06
2018-11-04T05:01:54.086Z,99804.86
2018-11-04T05:07:58.980Z,99809.58
2018-11-04T05:14:03.645Z,99800.90
2018-11-04T05:20:08.509Z,99799.41
2018-11-04T05:26:13.146Z,99801.86
2018-11-04T05:32:18.210Z,99795.14
2018-11-04T05:38:23.049Z,99806.81
2018-11-04T05:44:27.820Z,99800.91
2018-11-04T05:50:32.544Z,99808.33
2018-11-04T05:56:37.259Z,99809.97
2018-11-04T06:02:41.919Z,99806.92
2018-11-04T06:08:46.630Z,99813.08
2018-11-04T06:14:51.339Z,99821.42
2018-11-04T06:20:56.351Z,99827.95
2018-11-04T06:27:01.088Z,99821.22
2018-11-04T06:33:06.120Z,99820.48
2018-11-04T06:39:11.118Z,99825.73
2018-11-04T06:45:15.851Z,99825.12
2018-11-04T06:51:20.570Z,99829.56
2018-11-04T06:57:25.215Z,99834.54
2018-11-04T07:03:30.166Z,99828.19
2018-11-04T07:09:34.811Z,99823.86
2018-11-04T07:15:39.502Z,99821.05
2018-11-04T07:21:44.933Z,99808.55
2018-11-04T07:27:50.266Z,99814.81
2018-11-04T07:33:54.996Z,99809.70
2018-11-04T07:39:59.957Z,99813.25
2018-11-04T07:46:04.721Z,99805.95
2018-11-04T07:52:09.441Z,99814.11
2018-11-04T07:58:14.941Z,99807.42
2018-11-04T08:04:19.755Z,99802.75
2018-11-04T08:10:24.453Z,99787.87
2018-11-04T08:16:29.154Z,99786.73
2018-11-04T08:22:34.085Z,99786.87
2018-11-04T08:28:39.055Z,99779.70
2018-11-04T08:34:44.013Z,99772.42
2018-11-04T08:40:49.011Z,99760.50
2018-11-04T08:46:54.109Z,99752.58
2018-11-04T08:52:58.865Z,99751.85
2018-11-04T08:59:04.074Z,99743.23
2018-11-04T09:05:09.028Z,99748.02
2018-11-04T09:11:13.671Z,99739.55
2018-11-04T09:17:18.613Z,99738.73
2018-11-04T09:23:23.719Z,99730.16
2018-11-04T09:29:29.056Z,99729.31
2018-11-04T09:35:33.963Z,99727.85
2018-11-04T09:41:38.633Z,99728.67
2018-11-04T09:47:43.360Z,99721.38
2018-11-04T09:53:48.224Z,99714.80
2018-11-04T09:59:53.015Z,99723.72
2018-11-04T10:05:58.219Z,99731.47
2018-11-04T10:12:04.211Z,99700.81
2018-11-04T10:18:08.876Z,99694.83
2018-11-04T10:24:14.309Z,99691.30
2018-11-04T10:30:19.967Z,99678.46
2018-11-04T10:36:24.710Z,99678.48
2018-11-04T10:42:30.285Z,99671.02
2018-11-04T10:48:34.989Z,99659.27
2018-11-04T10:54:39.742Z,99644.52
2018-11-04T11:00:49.724Z,99641.63
2018-11-04T11:06:54.458Z,99643.09
2018-11-04T11:12:59.165Z,99639.70
2018-11-04T11:19:03.848Z,99633.41
2018-11-04T11:25:10.464Z,99638.16
2018-11-04T11:31:15.570Z,99622.13
2018-11-04T11:37:20.244Z,99620.36
2018-11-04T11:43:25.208Z,99604.63
2018-11-04T11:49:30.171Z,99607.95
2018-11-04T11:55:35.080Z,99599.25
2018-11-04T12:01:39.755Z,99608.97
2018-11-04T12:07:44.680Z,99595.40
2018-11-04T12:13:49.401Z,99586.17
2018-11-04T12:19:54.838Z,99576.16
2018-11-04T12:25:59.518Z,99580.69
2018-11-04T12:32:04.263Z,99569.02
2018-11-04T12:38:09.113Z,99561.26
2018-11-04T12:44:13.755Z,99560.89
2018-11-04T12:50:18.447Z,99559.27
2018-11-04T12:56:23.113Z,99539.27
2018-11-04T13:02:27.779Z,99524.45
2018-11-04T13:08:32.468Z,99509.45
2018-11-04T13:14:37.178Z,99501.22
2018-11-04T13:20:41.889Z,99495.44
2018-11-04T13:26:46.571Z,99482.80
2018-11-04T13:32:51.357Z,99467.09
2018-11-04T13:38:56.019Z,99482.59
2018-11-04T13:45:00.869Z,99466.68
2018-11-04T13:51:05.827Z,99460.25
2018-11-04T13:57:11.286Z,99466.23
2018-11-04T14:03:15.987Z,99466.08
2018-11-04T14:09:20.669Z,99460.45
2018-11-04T14:15:25.412Z,99458.02
2018-11-04T14:21:30.061Z,99443.55
2018-11-04T14:27:35.046Z,99445.84
2018-11-04T14:33:40.104Z,99447.45
2018-11-04T14:39:45.243Z,99444.66
2018-11-04T14:45:50.074Z,99447.06
2018-11-04T14:51:54.769Z,99440.62
2018-11-04T14:57:59.448Z,99433.17
2018-11-04T15:04:04.291Z,99429.02
2018-11-04T15:10:11.892Z,99423.89
2018-11-04T15:16:17.137Z,99420.66
2018-11-04T15:22:21.790Z,99411.86
2018-11-04T15:28:27.029Z,99413.12
2018-11-04T15:34:31.879Z,99418.36
2018-11-04T15:40:37.185Z,99414.50
2018-11-04T15:46:41.837Z,99426.16
2018-11-04T15:52:47.230Z,99421.98
2018-11-04T15:58:51.898Z,99415.61
2018-11-04T16:04:56.862Z,99408.44
2018-11-04T16:11:01.543Z,99402.94
2018-11-04T16:17:06.285Z,99394.59
2018-11-04T16:23:11.100Z,99384.14
2018-11-04T16:29:16.178Z,99384.95
2018-11-04T16:35:20.938Z,99393.03
2018-11-04T16:41:25.733Z,99397.70
2018-11-04T16:47:30.520Z,99387.75
2018-11-04T16:53:35.957Z,99389.75
2018-11-04T16:59:41.188Z,99392.66
2018-11-04T17:05:46.076Z,99390.20
2018-11-04T17:11:50.675Z,99399.64
2018-11-04T17:17:56.057Z,99392.79
2018-11-04T17:24:01.223Z,99379.23
2018-11-04T17:30:09.412Z,99379.38
2018-11-04T17:36:14.119Z,99363.88
2018-11-04T17:42:18.856Z,99358.90
2018-11-04T17:48:23.584Z,99358.17
2018-11-04T17:54:28.536Z,99350.52
2018-11-04T18:00:33.272Z,99364.23
2018-11-04T18:06:38.062Z,99360.60
2018-11-04T18:12:42.976Z,99357.60
2018-11-04T18:18:47.747Z,99350.71
2018-11-04T18:24:52.765Z,99355.70
2018-11-04T18:30:57.585Z,99360.74
2018-11-04T18:37:02.323Z,99365.44
2018-11-04T18:43:07.318Z,99359.81
2018-11-04T18:49:12.004Z,99362.75
2018-11-04T18:55:17.231Z,99356.51
2018-11-04T19:01:21.974Z,99357.86
2018-11-04T19:07:27.473Z,99354.84
2018-11-04T19:13:32.188Z,99344.80
2018-11-04T19:19:37.201Z,99327.48
2018-11-04T19:25:41.973Z,99330.95
2018-11-04T19:31:47.167Z,99321.56
2018-11-04T19:37:51.911Z,99318.36
2018-11-04T19:43:56.763Z,99323.84
2018-11-04T19:50:01.768Z,99312.68
2018-11-04T19:56:08.351Z,99298.23
2018-11-04T20:02:13.422Z,99287.33
2018-11-04T20:08:18.440Z,99288.14
2018-11-04T20:14:24.165Z,99289.97
2018-11-04T20:20:28.907Z,99284.03
2018-11-04T20:26:33.575Z,99287.50
2018-11-04T20:32:43.778Z,99273.91
2018-11-04T20:38:54.084Z,99269.18
2018-11-04T20:44:59.236Z,99272.05
2018-11-04T20:51:05.599Z,99272.92
2018-11-04T20:57:15.507Z,99276.63
2018-11-04T21:03:20.137Z,99276.77
2018-11-04T21:09:25.184Z,99272.78
2018-11-04T21:15:30.529Z,99268.87
2018-11-04T21:21:35.318Z,99254.12
2018-11-04T21:27:40.445Z,99243.26
2018-11-04T21:33:45.208Z,99238.84
2018-11-04T21:39:49.937Z,99238.73
2018-11-04T21:45:55.433Z,99235.55
2018-11-04T21:52:00.516Z,99228.92
2018-11-04T21:58:09.314Z,99232.34
2018-11-04T22:04:14.124Z,99229.34
2018-11-04T22:10:18.756Z,99221.10
2018-11-04T22:16:24.605Z,99223.88
2018-11-04T22:22:29.289Z,99228.83
2018-11-04T22:28:34.341Z,99219.33
2018-11-04T22:34:39.565Z,99230.29
2018-11-04T22:40:44.351Z,99224.28
2018-11-04T22:46:49.107Z,99206.13
2018-11-04T22:52:54.348Z,99201.16
2018-11-04T22:58:59.102Z,99200.95
2018-11-04T23:05:09.256Z,99197.65
2018-11-04T23:11:13.973Z,99188.45
2018-11-04T23:17:18.693Z,99187.83
2018-11-04T23:23:23.371Z,99180.11
2018-11-04T23:29:28.383Z,99174.11
2018-11-04T23:35:33.496Z,99168.23
2018-11-04T23:41:38.406Z,99162.23
2018-11-04T23:47:43.876Z,99149.63
2018-11-04T23:53:48.592Z,99149.33
2018-11-04T23:59:53.310Z,99142.63
